sensor_id;sensor_type;location;lat;lon;timestamp;P1;durP1;ratioP1;P2;durP2;ratioP2
22967;SDS011;11650;48.106;-1.696;2023-11-21T00:00:18;11.53;;;2.43;;
22967;SDS011;11650;48.106;-1.696;2023-11-21T00:02:45;10.80;;;2.73;;
22967;SDS011;11650;48.106;-1.696;2023-11-21T00:05:11;16.47;;;2.23;;
22967;SDS011;11650;48.106;-1.696;2023-11-21T00:07:39;17.30;;;2.90;;
22967;SDS011;11650;48.106;-1.696;2023-11-21T00:10:05;13.83;;;2.60;;
22967;SDS011;11650;48.106;-1.696;2023-11-21T00:12:33;14.87;;;2.40;;
22967;SDS011;11650;48.106;-1.696;2023-11-21T00:14:59;10.17;;;2.30;;
22967;SDS011;11650;48.106;-1.696;2023-11-21T00:17:25;6.47;;;1.60;;
22967;SDS011;11650;48.106;-1.696;2023-11-21T00:19:50;7.97;;;1.73;;
22967;SDS011;11650;48.106;-1.696;2023-11-21T00:22:19;7.70;;;1.77;;
22967;SDS011;11650;48.106;-1.696;2023-11-21T00:24:45;8.57;;;1.83;;
22967;SDS011;11650;48.106;-1.696;2023-11-21T00:27:11;9.83;;;2.20;;
22967;SDS011;11650;48.106;-1.696;2023-11-21T00:29:36;8.97;;;1.77;;
22967;SDS011;11650;48.106;-1.696;2023-11-21T00:32:03;9.83;;;1.97;;
22967;SDS011;11650;48.106;-1.696;2023-11-21T00:34:30;12.60;;;2.40;;
22967;SDS011;11650;48.106;-1.696;2023-11-21T00:36:56;9.07;;;2.17;;
22967;SDS011;11650;48.106;-1.696;2023-11-21T00:39:22;10.60;;;2.10;;
22967;SDS011;11650;48.106;-1.696;2023-11-21T00:41:48;12.57;;;2.27;;
22967;SDS011;11650;48.106;-1.696;2023-11-21T00:44:13;8.07;;;1.90;;
22967;SDS011;11650;48.106;-1.696;2023-11-21T00:46:39;11.00;;;2.60;;
22967;SDS011;11650;48.106;-1.696;2023-11-21T00:49:05;15.00;;;2.90;;
22967;SDS011;11650;48.106;-1.696;2023-11-21T00:51:30;8.20;;;2.30;;
22967;SDS011;11650;48.106;-1.696;2023-11-21T00:53:56;11.33;;;2.50;;
22967;SDS011;11650;48.106;-1.696;2023-11-21T00:56:22;8.90;;;2.00;;
22967;SDS011;11650;48.106;-1.696;2023-11-21T00:58:48;15.57;;;2.20;;
22967;SDS011;11650;48.106;-1.696;2023-11-21T01:01:17;12.53;;;2.33;;
22967;SDS011;11650;48.106;-1.696;2023-11-21T01:03:49;12.20;;;2.10;;
22967;SDS011;11650;48.106;-1.696;2023-11-21T01:06:15;8.40;;;1.90;;
22967;SDS011;11650;48.106;-1.696;2023-11-21T01:08:41;11.37;;;1.90;;
22967;SDS011;11650;48.106;-1.696;2023-11-21T01:11:07;11.27;;;1.93;;
22967;SDS011;11650;48.106;-1.696;2023-11-21T01:13:33;11.60;;;1.93;;
22967;SDS011;11650;48.106;-1.696;2023-11-21T01:16:00;11.27;;;2.57;;
22967;SDS011;11650;48.106;-1.696;2023-11-21T01:18:26;10.07;;;2.03;;
22967;SDS011;11650;48.106;-1.696;2023-11-21T01:20:52;13.70;;;2.00;;
22967;SDS011;11650;48.106;-1.696;2023-11-21T01:23:20;7.83;;;1.50;;
22967;SDS011;11650;48.106;-1.696;2023-11-21T01:25:46;10.60;;;1.60;;
22967;SDS011;11650;48.106;-1.696;2023-11-21T01:28:11;8.37;;;1.80;;
22967;SDS011;11650;48.106;-1.696;2023-11-21T01:30:37;14.00;;;2.20;;
22967;SDS011;11650;48.106;-1.696;2023-11-21T01:33:03;11.10;;;1.77;;
22967;SDS011;11650;48.106;-1.696;2023-11-21T01:35:29;10.13;;;1.40;;
22967;SDS011;11650;48.106;-1.696;2023-11-21T01:37:55;11.00;;;1.57;;
22967;SDS011;11650;48.106;-1.696;2023-11-21T01:40:20;12.23;;;1.63;;
22967;SDS011;11650;48.106;-1.696;2023-11-21T01:42:46;11.20;;;2.17;;
22967;SDS011;11650;48.106;-1.696;2023-11-21T01:45:13;15.13;;;1.83;;
22967;SDS011;11650;48.106;-1.696;2023-11-21T01:47:40;10.77;;;1.63;;
22967;SDS011;11650;48.106;-1.696;2023-11-21T01:50:07;12.63;;;1.70;;
22967;SDS011;11650;48.106;-1.696;2023-11-21T01:52:37;11.03;;;1.70;;
22967;SDS011;11650;48.106;-1.696;2023-11-21T01:55:04;15.37;;;1.40;;
22967;SDS011;11650;48.106;-1.696;2023-11-21T01:57:33;12.30;;;1.60;;
22967;SDS011;11650;48.106;-1.696;2023-11-21T02:00:00;7.93;;;1.63;;
22967;SDS011;11650;48.106;-1.696;2023-11-21T02:02:40;6.57;;;1.37;;
22967;SDS011;11650;48.106;-1.696;2023-11-21T02:05:12;8.90;;;1.53;;
22967;SDS011;11650;48.106;-1.696;2023-11-21T02:07:39;8.40;;;1.57;;
22967;SDS011;11650;48.106;-1.696;2023-11-21T02:10:07;8.80;;;1.87;;
22967;SDS011;11650;48.106;-1.696;2023-11-21T02:12:33;8.07;;;1.43;;
22967;SDS011;11650;48.106;-1.696;2023-11-21T02:15:00;9.23;;;1.60;;
22967;SDS011;11650;48.106;-1.696;2023-11-21T02:17:34;7.03;;;1.50;;
22967;SDS011;11650;48.106;-1.696;2023-11-21T02:20:02;6.17;;;1.37;;
22967;SDS011;11650;48.106;-1.696;2023-11-21T02:22:31;11.33;;;1.37;;
22967;SDS011;11650;48.106;-1.696;2023-11-21T02:25:04;7.10;;;1.40;;
22967;SDS011;11650;48.106;-1.696;2023-11-21T02:27:30;9.23;;;1.40;;
22967;SDS011;11650;48.106;-1.696;2023-11-21T02:29:56;7.33;;;1.47;;
22967;SDS011;11650;48.106;-1.696;2023-11-21T02:32:21;10.90;;;1.50;;
22967;SDS011;11650;48.106;-1.696;2023-11-21T02:34:48;7.10;;;1.27;;
22967;SDS011;11650;48.106;-1.696;2023-11-21T02:37:14;9.57;;;1.60;;
22967;SDS011;11650;48.106;-1.696;2023-11-21T02:39:40;6.30;;;1.43;;
22967;SDS011;11650;48.106;-1.696;2023-11-21T02:42:06;7.27;;;1.50;;
22967;SDS011;11650;48.106;-1.696;2023-11-21T02:44:32;7.77;;;1.40;;
22967;SDS011;11650;48.106;-1.696;2023-11-21T02:46:57;6.23;;;1.10;;
22967;SDS011;11650;48.106;-1.696;2023-11-21T02:49:23;8.83;;;1.37;;
22967;SDS011;11650;48.106;-1.696;2023-11-21T02:51:49;6.40;;;1.20;;
22967;SDS011;11650;48.106;-1.696;2023-11-21T02:54:14;9.20;;;1.53;;
22967;SDS011;11650;48.106;-1.696;2023-11-21T02:56:42;9.00;;;1.30;;
22967;SDS011;11650;48.106;-1.696;2023-11-21T02:59:07;5.37;;;1.13;;
22967;SDS011;11650;48.106;-1.696;2023-11-21T03:01:33;15.20;;;1.57;;
22967;SDS011;11650;48.106;-1.696;2023-11-21T03:03:59;6.67;;;1.40;;
22967;SDS011;11650;48.106;-1.696;2023-11-21T03:06:25;7.23;;;1.40;;
22967;SDS011;11650;48.106;-1.696;2023-11-21T03:08:50;8.43;;;1.57;;
22967;SDS011;11650;48.106;-1.696;2023-11-21T03:11:16;15.30;;;1.40;;
22967;SDS011;11650;48.106;-1.696;2023-11-21T03:13:42;4.67;;;1.03;;
22967;SDS011;11650;48.106;-1.696;2023-11-21T03:16:08;6.83;;;1.20;;
22967;SDS011;11650;48.106;-1.696;2023-11-21T03:18:35;3.77;;;1.03;;
22967;SDS011;11650;48.106;-1.696;2023-11-21T03:21:04;9.10;;;1.20;;
22967;SDS011;11650;48.106;-1.696;2023-11-21T03:23:30;6.93;;;1.30;;
22967;SDS011;11650;48.106;-1.696;2023-11-21T03:25:56;7.10;;;1.80;;
22967;SDS011;11650;48.106;-1.696;2023-11-21T03:28:23;8.00;;;1.70;;
22967;SDS011;11650;48.106;-1.696;2023-11-21T03:30:48;14.50;;;1.90;;
22967;SDS011;11650;48.106;-1.696;2023-11-21T03:33:14;7.90;;;1.40;;
22967;SDS011;11650;48.106;-1.696;2023-11-21T03:35:40;6.43;;;1.40;;
22967;SDS011;11650;48.106;-1.696;2023-11-21T03:38:07;5.47;;;1.40;;
22967;SDS011;11650;48.106;-1.696;2023-11-21T03:40:32;6.57;;;1.60;;
22967;SDS011;11650;48.106;-1.696;2023-11-21T03:42:58;7.60;;;1.70;;
22967;SDS011;11650;48.106;-1.696;2023-11-21T03:45:24;9.47;;;1.70;;
22967;SDS011;11650;48.106;-1.696;2023-11-21T03:47:49;7.30;;;1.33;;
22967;SDS011;11650;48.106;-1.696;2023-11-21T03:50:15;8.23;;;1.40;;
22967;SDS011;11650;48.106;-1.696;2023-11-21T03:52:41;12.97;;;2.03;;
22967;SDS011;11650;48.106;-1.696;2023-11-21T03:55:07;9.97;;;2.00;;
22967;SDS011;11650;48.106;-1.696;2023-11-21T03:57:33;15.83;;;2.70;;
22967;SDS011;11650;48.106;-1.696;2023-11-21T03:59:59;12.23;;;2.40;;
22967;SDS011;11650;48.106;-1.696;2023-11-21T04:02:25;14.00;;;1.70;;
22967;SDS011;11650;48.106;-1.696;2023-11-21T04:04:51;15.63;;;1.73;;
22967;SDS011;11650;48.106;-1.696;2023-11-21T04:07:17;8.57;;;1.73;;
22967;SDS011;11650;48.106;-1.696;2023-11-21T04:09:43;11.80;;;1.87;;
22967;SDS011;11650;48.106;-1.696;2023-11-21T04:12:08;9.93;;;1.67;;
22967;SDS011;11650;48.106;-1.696;2023-11-21T04:14:34;10.40;;;1.87;;
22967;SDS011;11650;48.106;-1.696;2023-11-21T04:17:00;16.40;;;1.97;;
22967;SDS011;11650;48.106;-1.696;2023-11-21T04:19:26;13.77;;;2.13;;
22967;SDS011;11650;48.106;-1.696;2023-11-21T04:21:51;6.93;;;1.50;;
22967;SDS011;11650;48.106;-1.696;2023-11-21T04:24:17;11.87;;;1.90;;
22967;SDS011;11650;48.106;-1.696;2023-11-21T04:26:43;11.17;;;1.57;;
22967;SDS011;11650;48.106;-1.696;2023-11-21T04:29:09;12.40;;;1.70;;
22967;SDS011;11650;48.106;-1.696;2023-11-21T04:31:35;12.97;;;1.50;;
22967;SDS011;11650;48.106;-1.696;2023-11-21T04:34:00;7.57;;;1.50;;
22967;SDS011;11650;48.106;-1.696;2023-11-21T04:36:26;12.47;;;2.30;;
22967;SDS011;11650;48.106;-1.696;2023-11-21T04:38:52;9.73;;;1.80;;
22967;SDS011;11650;48.106;-1.696;2023-11-21T04:41:17;9.07;;;1.37;;
22967;SDS011;11650;48.106;-1.696;2023-11-21T04:43:43;8.20;;;1.57;;
22967;SDS011;11650;48.106;-1.696;2023-11-21T04:46:08;9.80;;;1.63;;
22967;SDS011;11650;48.106;-1.696;2023-11-21T04:48:34;9.63;;;1.90;;
22967;SDS011;11650;48.106;-1.696;2023-11-21T04:51:00;8.50;;;1.50;;
22967;SDS011;11650;48.106;-1.696;2023-11-21T04:53:25;9.90;;;2.13;;
22967;SDS011;11650;48.106;-1.696;2023-11-21T04:55:51;7.37;;;1.73;;
22967;SDS011;11650;48.106;-1.696;2023-11-21T04:58:17;9.50;;;1.93;;
22967;SDS011;11650;48.106;-1.696;2023-11-21T05:00:42;11.97;;;2.23;;
22967;SDS011;11650;48.106;-1.696;2023-11-21T05:03:09;13.00;;;1.90;;
22967;SDS011;11650;48.106;-1.696;2023-11-21T05:05:34;9.07;;;1.90;;
22967;SDS011;11650;48.106;-1.696;2023-11-21T05:08:00;11.97;;;1.73;;
22967;SDS011;11650;48.106;-1.696;2023-11-21T05:10:26;12.50;;;1.97;;
22967;SDS011;11650;48.106;-1.696;2023-11-21T05:12:52;10.83;;;2.00;;
22967;SDS011;11650;48.106;-1.696;2023-11-21T05:15:18;15.47;;;1.90;;
22967;SDS011;11650;48.106;-1.696;2023-11-21T05:17:43;8.97;;;1.97;;
22967;SDS011;11650;48.106;-1.696;2023-11-21T05:20:11;11.57;;;1.80;;
22967;SDS011;11650;48.106;-1.696;2023-11-21T05:22:39;13.50;;;2.03;;
22967;SDS011;11650;48.106;-1.696;2023-11-21T05:25:06;9.47;;;1.50;;
22967;SDS011;11650;48.106;-1.696;2023-11-21T05:27:33;12.13;;;2.13;;
22967;SDS011;11650;48.106;-1.696;2023-11-21T05:29:59;11.30;;;1.97;;
22967;SDS011;11650;48.106;-1.696;2023-11-21T05:32:32;17.83;;;2.30;;
22967;SDS011;11650;48.106;-1.696;2023-11-21T05:34:59;12.50;;;2.10;;
22967;SDS011;11650;48.106;-1.696;2023-11-21T05:37:24;9.80;;;1.83;;
22967;SDS011;11650;48.106;-1.696;2023-11-21T05:39:52;8.87;;;1.77;;
22967;SDS011;11650;48.106;-1.696;2023-11-21T05:42:18;12.30;;;1.70;;
22967;SDS011;11650;48.106;-1.696;2023-11-21T05:44:44;12.53;;;1.60;;
22967;SDS011;11650;48.106;-1.696;2023-11-21T05:47:09;11.67;;;2.20;;
22967;SDS011;11650;48.106;-1.696;2023-11-21T05:49:35;8.67;;;2.57;;
22967;SDS011;11650;48.106;-1.696;2023-11-21T05:52:02;8.43;;;2.17;;
22967;SDS011;11650;48.106;-1.696;2023-11-21T05:54:27;17.83;;;2.53;;
22967;SDS011;11650;48.106;-1.696;2023-11-21T05:56:53;10.27;;;2.27;;
22967;SDS011;11650;48.106;-1.696;2023-11-21T05:59:19;12.23;;;2.70;;
22967;SDS011;11650;48.106;-1.696;2023-11-21T06:01:45;14.13;;;2.70;;
22967;SDS011;11650;48.106;-1.696;2023-11-21T06:04:11;15.33;;;2.93;;
22967;SDS011;11650;48.106;-1.696;2023-11-21T06:06:38;17.17;;;3.60;;
22967;SDS011;11650;48.106;-1.696;2023-11-21T06:09:04;17.63;;;5.37;;
22967;SDS011;11650;48.106;-1.696;2023-11-21T06:11:31;15.73;;;3.17;;
22967;SDS011;11650;48.106;-1.696;2023-11-21T06:13:57;14.80;;;3.77;;
22967;SDS011;11650;48.106;-1.696;2023-11-21T06:16:23;17.83;;;4.57;;
22967;SDS011;11650;48.106;-1.696;2023-11-21T06:18:49;13.53;;;3.27;;
22967;SDS011;11650;48.106;-1.696;2023-11-21T06:21:15;15.47;;;3.23;;
22967;SDS011;11650;48.106;-1.696;2023-11-21T06:23:42;13.53;;;3.20;;
22967;SDS011;11650;48.106;-1.696;2023-11-21T06:26:07;15.73;;;2.93;;
22967;SDS011;11650;48.106;-1.696;2023-11-21T06:28:34;14.93;;;2.43;;
22967;SDS011;11650;48.106;-1.696;2023-11-21T06:31:01;14.77;;;2.63;;
22967;SDS011;11650;48.106;-1.696;2023-11-21T06:33:30;13.17;;;2.60;;
22967;SDS011;11650;48.106;-1.696;2023-11-21T06:35:56;17.77;;;2.93;;
22967;SDS011;11650;48.106;-1.696;2023-11-21T06:38:22;15.30;;;2.90;;
22967;SDS011;11650;48.106;-1.696;2023-11-21T06:40:48;18.87;;;2.60;;
22967;SDS011;11650;48.106;-1.696;2023-11-21T06:43:13;12.20;;;2.70;;
22967;SDS011;11650;48.106;-1.696;2023-11-21T06:45:40;14.77;;;2.70;;
22967;SDS011;11650;48.106;-1.696;2023-11-21T06:48:06;15.40;;;2.80;;
22967;SDS011;11650;48.106;-1.696;2023-11-21T06:50:32;12.33;;;2.70;;
22967;SDS011;11650;48.106;-1.696;2023-11-21T06:52:57;14.87;;;2.43;;
22967;SDS011;11650;48.106;-1.696;2023-11-21T06:55:23;16.53;;;2.80;;
22967;SDS011;11650;48.106;-1.696;2023-11-21T06:57:48;24.80;;;3.10;;
22967;SDS011;11650;48.106;-1.696;2023-11-21T07:00:17;15.37;;;2.73;;
22967;SDS011;11650;48.106;-1.696;2023-11-21T07:02:43;22.33;;;2.90;;
22967;SDS011;11650;48.106;-1.696;2023-11-21T07:05:09;20.27;;;3.53;;
22967;SDS011;11650;48.106;-1.696;2023-11-21T07:07:36;18.93;;;3.10;;
22967;SDS011;11650;48.106;-1.696;2023-11-21T07:10:02;14.53;;;2.90;;
22967;SDS011;11650;48.106;-1.696;2023-11-21T07:12:29;21.57;;;2.73;;
22967;SDS011;11650;48.106;-1.696;2023-11-21T07:14:56;12.17;;;2.73;;
22967;SDS011;11650;48.106;-1.696;2023-11-21T07:17:22;21.37;;;3.43;;
22967;SDS011;11650;48.106;-1.696;2023-11-21T07:19:48;14.70;;;3.07;;
22967;SDS011;11650;48.106;-1.696;2023-11-21T07:22:15;18.47;;;3.10;;
22967;SDS011;11650;48.106;-1.696;2023-11-21T07:24:47;17.10;;;3.40;;
22967;SDS011;11650;48.106;-1.696;2023-11-21T07:27:14;23.03;;;4.00;;
22967;SDS011;11650;48.106;-1.696;2023-11-21T07:29:40;14.87;;;2.90;;
22967;SDS011;11650;48.106;-1.696;2023-11-21T07:32:06;12.70;;;2.97;;
22967;SDS011;11650;48.106;-1.696;2023-11-21T07:34:34;11.60;;;2.50;;
22967;SDS011;11650;48.106;-1.696;2023-11-21T07:37:00;9.20;;;1.67;;
22967;SDS011;11650;48.106;-1.696;2023-11-21T07:39:26;9.63;;;2.20;;
22967;SDS011;11650;48.106;-1.696;2023-11-21T07:41:52;9.17;;;1.80;;
22967;SDS011;11650;48.106;-1.696;2023-11-21T07:44:18;9.23;;;1.77;;
22967;SDS011;11650;48.106;-1.696;2023-11-21T07:46:44;10.67;;;2.03;;
22967;SDS011;11650;48.106;-1.696;2023-11-21T07:49:11;7.57;;;1.80;;
22967;SDS011;11650;48.106;-1.696;2023-11-21T07:51:37;11.67;;;1.90;;
22967;SDS011;11650;48.106;-1.696;2023-11-21T07:54:02;8.43;;;1.60;;
22967;SDS011;11650;48.106;-1.696;2023-11-21T07:56:28;8.23;;;1.40;;
22967;SDS011;11650;48.106;-1.696;2023-11-21T07:58:53;9.13;;;1.73;;
22967;SDS011;11650;48.106;-1.696;2023-11-21T08:01:19;10.80;;;1.40;;
22967;SDS011;11650;48.106;-1.696;2023-11-21T08:03:45;6.17;;;1.30;;
22967;SDS011;11650;48.106;-1.696;2023-11-21T08:06:10;6.93;;;1.60;;
22967;SDS011;11650;48.106;-1.696;2023-11-21T08:08:37;7.33;;;1.70;;
22967;SDS011;11650;48.106;-1.696;2023-11-21T08:11:02;5.93;;;1.37;;
22967;SDS011;11650;48.106;-1.696;2023-11-21T08:13:29;5.73;;;1.70;;
22967;SDS011;11650;48.106;-1.696;2023-11-21T08:15:58;8.87;;;1.87;;
22967;SDS011;11650;48.106;-1.696;2023-11-21T08:18:27;12.60;;;2.10;;
22967;SDS011;11650;48.106;-1.696;2023-11-21T08:20:54;5.97;;;1.70;;
22967;SDS011;11650;48.106;-1.696;2023-11-21T08:23:20;8.17;;;1.57;;
22967;SDS011;11650;48.106;-1.696;2023-11-21T08:25:50;8.70;;;1.80;;
22967;SDS011;11650;48.106;-1.696;2023-11-21T08:28:16;8.37;;;1.50;;
22967;SDS011;11650;48.106;-1.696;2023-11-21T08:30:42;8.47;;;1.80;;
22967;SDS011;11650;48.106;-1.696;2023-11-21T08:33:07;5.80;;;1.60;;
22967;SDS011;11650;48.106;-1.696;2023-11-21T08:35:34;8.17;;;1.47;;
22967;SDS011;11650;48.106;-1.696;2023-11-21T08:38:00;5.33;;;1.50;;
22967;SDS011;11650;48.106;-1.696;2023-11-21T08:40:25;9.07;;;1.60;;
22967;SDS011;11650;48.106;-1.696;2023-11-21T08:42:51;8.83;;;1.63;;
22967;SDS011;11650;48.106;-1.696;2023-11-21T08:45:17;5.57;;;1.60;;
22967;SDS011;11650;48.106;-1.696;2023-11-21T08:47:44;5.87;;;1.70;;
22967;SDS011;11650;48.106;-1.696;2023-11-21T08:50:10;9.43;;;2.00;;
22967;SDS011;11650;48.106;-1.696;2023-11-21T08:52:37;4.33;;;2.07;;
22967;SDS011;11650;48.106;-1.696;2023-11-21T08:55:04;6.23;;;2.03;;
22967;SDS011;11650;48.106;-1.696;2023-11-21T08:57:35;4.57;;;1.60;;
22967;SDS011;11650;48.106;-1.696;2023-11-21T09:00:03;7.10;;;1.60;;
22967;SDS011;11650;48.106;-1.696;2023-11-21T09:02:32;8.43;;;1.60;;
22967;SDS011;11650;48.106;-1.696;2023-11-21T09:05:02;7.07;;;1.63;;
22967;SDS011;11650;48.106;-1.696;2023-11-21T09:07:31;12.80;;;2.20;;
22967;SDS011;11650;48.106;-1.696;2023-11-21T09:09:57;7.97;;;1.80;;
22967;SDS011;11650;48.106;-1.696;2023-11-21T09:12:22;6.90;;;1.37;;
22967;SDS011;11650;48.106;-1.696;2023-11-21T09:14:49;8.63;;;1.80;;
22967;SDS011;11650;48.106;-1.696;2023-11-21T09:17:16;7.30;;;1.83;;
22967;SDS011;11650;48.106;-1.696;2023-11-21T09:19:41;8.80;;;1.57;;
22967;SDS011;11650;48.106;-1.696;2023-11-21T09:22:10;6.43;;;1.50;;
22967;SDS011;11650;48.106;-1.696;2023-11-21T09:24:35;6.43;;;2.00;;
22967;SDS011;11650;48.106;-1.696;2023-11-21T09:27:02;4.67;;;1.50;;
22967;SDS011;11650;48.106;-1.696;2023-11-21T09:29:28;6.90;;;1.53;;
22967;SDS011;11650;48.106;-1.696;2023-11-21T09:31:54;5.73;;;1.40;;
22967;SDS011;11650;48.106;-1.696;2023-11-21T09:34:22;5.37;;;1.30;;
22967;SDS011;11650;48.106;-1.696;2023-11-21T09:36:47;7.63;;;1.63;;
22967;SDS011;11650;48.106;-1.696;2023-11-21T09:39:14;7.00;;;1.70;;
22967;SDS011;11650;48.106;-1.696;2023-11-21T09:41:43;8.23;;;2.50;;
22967;SDS011;11650;48.106;-1.696;2023-11-21T09:44:15;8.27;;;1.50;;
22967;SDS011;11650;48.106;-1.696;2023-11-21T09:46:43;5.80;;;1.40;;
22967;SDS011;11650;48.106;-1.696;2023-11-21T09:49:13;8.37;;;1.50;;
22967;SDS011;11650;48.106;-1.696;2023-11-21T09:51:41;5.27;;;1.43;;
22967;SDS011;11650;48.106;-1.696;2023-11-21T09:54:08;6.40;;;1.70;;
22967;SDS011;11650;48.106;-1.696;2023-11-21T09:56:41;6.07;;;1.40;;
22967;SDS011;11650;48.106;-1.696;2023-11-21T09:59:07;6.53;;;1.70;;
22967;SDS011;11650;48.106;-1.696;2023-11-21T10:01:38;9.40;;;1.70;;
22967;SDS011;11650;48.106;-1.696;2023-11-21T10:04:05;8.30;;;1.60;;
22967;SDS011;11650;48.106;-1.696;2023-11-21T10:06:36;7.17;;;1.80;;
22967;SDS011;11650;48.106;-1.696;2023-11-21T10:09:10;6.10;;;1.70;;
22967;SDS011;11650;48.106;-1.696;2023-11-21T10:11:41;5.70;;;1.73;;
22967;SDS011;11650;48.106;-1.696;2023-11-21T10:14:09;5.50;;;1.80;;
22967;SDS011;11650;48.106;-1.696;2023-11-21T10:16:37;6.00;;;1.60;;
22967;SDS011;11650;48.106;-1.696;2023-11-21T10:19:04;7.93;;;1.67;;
22967;SDS011;11650;48.106;-1.696;2023-11-21T10:21:33;5.53;;;1.70;;
22967;SDS011;11650;48.106;-1.696;2023-11-21T10:23:58;5.90;;;1.47;;
22967;SDS011;11650;48.106;-1.696;2023-11-21T10:26:25;6.20;;;1.80;;
22967;SDS011;11650;48.106;-1.696;2023-11-21T10:28:55;6.00;;;1.60;;
22967;SDS011;11650;48.106;-1.696;2023-11-21T10:31:22;4.87;;;1.67;;
22967;SDS011;11650;48.106;-1.696;2023-11-21T10:33:49;7.33;;;1.80;;
22967;SDS011;11650;48.106;-1.696;2023-11-21T10:36:25;8.07;;;1.67;;
22967;SDS011;11650;48.106;-1.696;2023-11-21T10:38:52;5.00;;;1.67;;
22967;SDS011;11650;48.106;-1.696;2023-11-21T10:41:18;4.10;;;1.60;;
22967;SDS011;11650;48.106;-1.696;2023-11-21T10:43:45;3.87;;;1.67;;
22967;SDS011;11650;48.106;-1.696;2023-11-21T10:46:10;5.47;;;1.67;;
22967;SDS011;11650;48.106;-1.696;2023-11-21T10:48:36;5.30;;;1.60;;
22967;SDS011;11650;48.106;-1.696;2023-11-21T10:51:06;8.60;;;1.90;;
22967;SDS011;11650;48.106;-1.696;2023-11-21T10:53:32;4.97;;;2.00;;
22967;SDS011;11650;48.106;-1.696;2023-11-21T10:56:05;9.73;;;2.00;;
22967;SDS011;11650;48.106;-1.696;2023-11-21T10:58:33;5.30;;;1.70;;
22967;SDS011;11650;48.106;-1.696;2023-11-21T11:01:01;6.70;;;1.50;;
22967;SDS011;11650;48.106;-1.696;2023-11-21T11:03:31;5.07;;;1.80;;
22967;SDS011;11650;48.106;-1.696;2023-11-21T11:05:58;7.23;;;1.73;;
22967;SDS011;11650;48.106;-1.696;2023-11-21T11:08:24;7.77;;;1.73;;
22967;SDS011;11650;48.106;-1.696;2023-11-21T11:10:52;7.80;;;1.80;;
22967;SDS011;11650;48.106;-1.696;2023-11-21T11:13:18;2.13;;;1.50;;
22967;SDS011;11650;48.106;-1.696;2023-11-21T11:15:47;4.77;;;1.90;;
22967;SDS011;11650;48.106;-1.696;2023-11-21T11:18:13;5.83;;;2.13;;
22967;SDS011;11650;48.106;-1.696;2023-11-21T11:20:40;5.30;;;1.90;;
22967;SDS011;11650;48.106;-1.696;2023-11-21T11:28:54;4.33;;;1.73;;
22967;SDS011;11650;48.106;-1.696;2023-11-21T11:31:40;7.33;;;2.27;;
22967;SDS011;11650;48.106;-1.696;2023-11-21T11:37:26;3.77;;;1.60;;
22967;SDS011;11650;48.106;-1.696;2023-11-21T11:39:52;4.50;;;1.63;;
22967;SDS011;11650;48.106;-1.696;2023-11-21T11:42:19;7.67;;;2.07;;
22967;SDS011;11650;48.106;-1.696;2023-11-21T11:44:47;6.73;;;2.43;;
22967;SDS011;11650;48.106;-1.696;2023-11-21T11:47:16;6.00;;;1.90;;
22967;SDS011;11650;48.106;-1.696;2023-11-21T11:50:07;5.83;;;1.83;;
22967;SDS011;11650;48.106;-1.696;2023-11-21T11:52:48;8.67;;;2.03;;
22967;SDS011;11650;48.106;-1.696;2023-11-21T11:55:20;6.10;;;2.00;;
22967;SDS011;11650;48.106;-1.696;2023-11-21T11:57:47;7.17;;;2.30;;
22967;SDS011;11650;48.106;-1.696;2023-11-21T12:00:17;6.20;;;2.13;;
22967;SDS011;11650;48.106;-1.696;2023-11-21T12:02:54;7.43;;;2.27;;
22967;SDS011;11650;48.106;-1.696;2023-11-21T12:05:25;4.83;;;1.90;;
22967;SDS011;11650;48.106;-1.696;2023-11-21T12:07:58;7.37;;;2.00;;
22967;SDS011;11650;48.106;-1.696;2023-11-21T12:10:29;8.40;;;2.23;;
22967;SDS011;11650;48.106;-1.696;2023-11-21T12:13:06;3.37;;;1.90;;
22967;SDS011;11650;48.106;-1.696;2023-11-21T12:15:33;4.67;;;2.20;;
22967;SDS011;11650;48.106;-1.696;2023-11-21T12:18:00;5.57;;;2.30;;
22967;SDS011;11650;48.106;-1.696;2023-11-21T12:20:26;7.77;;;2.63;;
22967;SDS011;11650;48.106;-1.696;2023-11-21T12:22:56;8.90;;;2.60;;
22967;SDS011;11650;48.106;-1.696;2023-11-21T12:25:28;7.13;;;2.40;;
22967;SDS011;11650;48.106;-1.696;2023-11-21T12:27:57;8.70;;;2.30;;
22967;SDS011;11650;48.106;-1.696;2023-11-21T12:30:24;10.07;;;2.57;;
22967;SDS011;11650;48.106;-1.696;2023-11-21T12:32:53;6.60;;;2.10;;
22967;SDS011;11650;48.106;-1.696;2023-11-21T12:35:21;5.50;;;1.87;;
22967;SDS011;11650;48.106;-1.696;2023-11-21T12:37:48;4.97;;;2.10;;
22967;SDS011;11650;48.106;-1.696;2023-11-21T12:40:16;5.83;;;2.20;;
22967;SDS011;11650;48.106;-1.696;2023-11-21T12:42:42;4.60;;;2.13;;
22967;SDS011;11650;48.106;-1.696;2023-11-21T12:47:48;5.80;;;1.90;;
22967;SDS011;11650;48.106;-1.696;2023-11-21T12:50:24;3.23;;;1.70;;
22967;SDS011;11650;48.106;-1.696;2023-11-21T12:52:53;7.17;;;2.10;;
22967;SDS011;11650;48.106;-1.696;2023-11-21T12:55:23;5.23;;;1.70;;
22967;SDS011;11650;48.106;-1.696;2023-11-21T12:57:54;3.93;;;1.90;;
22967;SDS011;11650;48.106;-1.696;2023-11-21T13:00:27;5.27;;;2.30;;
22967;SDS011;11650;48.106;-1.696;2023-11-21T13:02:57;4.70;;;1.73;;
22967;SDS011;11650;48.106;-1.696;2023-11-21T13:05:33;4.50;;;2.00;;
22967;SDS011;11650;48.106;-1.696;2023-11-21T13:08:03;5.10;;;1.70;;
22967;SDS011;11650;48.106;-1.696;2023-11-21T13:10:32;3.43;;;2.00;;
22967;SDS011;11650;48.106;-1.696;2023-11-21T13:13:01;5.43;;;1.87;;
22967;SDS011;11650;48.106;-1.696;2023-11-21T13:15:30;3.40;;;2.03;;
22967;SDS011;11650;48.106;-1.696;2023-11-21T13:17:58;6.03;;;1.87;;
22967;SDS011;11650;48.106;-1.696;2023-11-21T13:20:24;5.13;;;2.07;;
22967;SDS011;11650;48.106;-1.696;2023-11-21T13:25:20;3.60;;;1.50;;
22967;SDS011;11650;48.106;-1.696;2023-11-21T13:27:46;5.17;;;1.53;;
22967;SDS011;11650;48.106;-1.696;2023-11-21T13:30:12;7.93;;;1.80;;
22967;SDS011;11650;48.106;-1.696;2023-11-21T13:32:42;5.17;;;1.37;;
22967;SDS011;11650;48.106;-1.696;2023-11-21T13:35:09;5.93;;;1.30;;
22967;SDS011;11650;48.106;-1.696;2023-11-21T13:37:45;3.93;;;1.40;;
22967;SDS011;11650;48.106;-1.696;2023-11-21T13:40:14;3.17;;;1.40;;
22967;SDS011;11650;48.106;-1.696;2023-11-21T13:42:47;4.70;;;1.73;;
22967;SDS011;11650;48.106;-1.696;2023-11-21T13:45:14;7.50;;;1.83;;
22967;SDS011;11650;48.106;-1.696;2023-11-21T13:47:39;4.60;;;1.80;;
22967;SDS011;11650;48.106;-1.696;2023-11-21T13:50:05;3.20;;;1.63;;
22967;SDS011;11650;48.106;-1.696;2023-11-21T13:52:42;7.87;;;1.93;;
22967;SDS011;11650;48.106;-1.696;2023-11-21T13:55:10;8.77;;;2.30;;
22967;SDS011;11650;48.106;-1.696;2023-11-21T13:57:40;7.47;;;2.40;;
22967;SDS011;11650;48.106;-1.696;2023-11-21T14:00:10;7.43;;;2.00;;
22967;SDS011;11650;48.106;-1.696;2023-11-21T14:02:56;4.50;;;2.00;;
22967;SDS011;11650;48.106;-1.696;2023-11-21T14:05:29;6.23;;;2.20;;
22967;SDS011;11650;48.106;-1.696;2023-11-21T14:07:56;7.90;;;2.23;;
22967;SDS011;11650;48.106;-1.696;2023-11-21T14:10:28;9.63;;;2.27;;
22967;SDS011;11650;48.106;-1.696;2023-11-21T14:13:04;5.00;;;1.80;;
22967;SDS011;11650;48.106;-1.696;2023-11-21T14:15:31;6.07;;;1.87;;
22967;SDS011;11650;48.106;-1.696;2023-11-21T14:17:58;7.67;;;2.03;;
22967;SDS011;11650;48.106;-1.696;2023-11-21T14:20:25;3.10;;;1.73;;
22967;SDS011;11650;48.106;-1.696;2023-11-21T14:22:50;5.77;;;1.80;;
22967;SDS011;11650;48.106;-1.696;2023-11-21T14:25:17;4.27;;;1.53;;
22967;SDS011;11650;48.106;-1.696;2023-11-21T14:27:42;7.23;;;1.80;;
22967;SDS011;11650;48.106;-1.696;2023-11-21T14:30:08;6.00;;;1.73;;
22967;SDS011;11650;48.106;-1.696;2023-11-21T14:32:37;5.47;;;1.80;;
22967;SDS011;11650;48.106;-1.696;2023-11-21T14:35:03;8.13;;;1.80;;
22967;SDS011;11650;48.106;-1.696;2023-11-21T14:37:30;7.20;;;1.80;;
22967;SDS011;11650;48.106;-1.696;2023-11-21T14:39:55;4.03;;;1.60;;
22967;SDS011;11650;48.106;-1.696;2023-11-21T14:42:22;5.67;;;1.50;;
22967;SDS011;11650;48.106;-1.696;2023-11-21T14:44:50;9.20;;;1.73;;